createdAt,value
2023-01-13T00:01:08.298Z,99250.84
2023-01-13T00:03:36.423Z,99262.69
2023-01-13T00:06:05.096Z,99266.88
2023-01-13T00:08:35.883Z,99265.00
2023-01-13T00:11:04.241Z,99238.75
2023-01-13T00:13:35.327Z,99240.97
2023-01-13T00:16:06.257Z,99274.25
2023-01-13T00:18:34.833Z,99252.00
2023-01-13T00:21:04.769Z,99263.13
2023-01-13T00:23:35.684Z,99259.13
2023-01-13T00:26:06.123Z,99273.25
2023-01-13T00:28:34.313Z,99263.75
2023-01-13T00:31:06.522Z,99260.13
2023-01-13T00:33:37.603Z,99259.31
2023-01-13T00:36:08.112Z,99266.56
2023-01-13T00:38:38.920Z,99275.22
2023-01-13T00:41:09.030Z,99291.59
2023-01-13T00:43:37.761Z,99282.47
2023-01-13T00:46:06.935Z,99299.63
2023-01-13T00:48:35.709Z,99298.81
2023-01-13T00:51:05.770Z,99281.22
2023-01-13T00:53:36.407Z,99308.06
2023-01-13T00:56:08.321Z,99289.09
2023-01-13T00:58:37.062Z,99307.63
2023-01-13T01:01:07.481Z,99301.56
2023-01-13T01:03:36.319Z,99319.22
2023-01-13T01:06:07.342Z,99321.03
2023-01-13T01:08:35.928Z,99320.84
2023-01-13T01:11:07.278Z,99328.44
2023-01-13T01:13:35.830Z,99330.16
2023-01-13T01:16:07.553Z,99336.38
2023-01-13T01:18:36.015Z,99342.81
2023-01-13T01:21:04.363Z,99341.81
2023-01-13T01:23:33.043Z,99340.53
2023-01-13T01:26:02.522Z,99363.59
2023-01-13T01:28:32.225Z,99366.03
2023-01-13T01:31:02.006Z,99385.22
2023-01-13T01:33:30.204Z,99387.84
2023-01-13T01:35:58.440Z,99387.84
2023-01-13T01:38:26.566Z,99390.25
2023-01-13T01:41:06.836Z,99395.50
2023-01-13T01:44:00.580Z,99378.97
2023-01-13T01:46:31.101Z,99399.56
2023-01-13T01:49:04.431Z,99371.72
2023-01-13T01:51:36.965Z,99393.34
2023-01-13T01:54:07.695Z,99422.53
2023-01-13T01:56:39.755Z,99413.03
2023-01-13T01:59:09.763Z,99425.63
2023-01-13T02:01:39.394Z,99425.88
2023-01-13T02:04:13.716Z,99451.91
2023-01-13T02:06:43.009Z,99441.22
2023-01-13T02:09:11.661Z,99447.31
2023-01-13T02:11:57.533Z,99444.16
2023-01-13T02:14:29.733Z,99460.69
2023-01-13T02:17:13.773Z,99464.59
2023-01-13T02:20:23.354Z,99454.44
2023-01-13T02:23:44.003Z,99498.38
2023-01-13T02:26:44.510Z,99482.84
2023-01-13T02:29:45.987Z,99498.56
2023-01-13T02:32:21.439Z,99506.97
2023-01-13T02:34:58.696Z,99522.38
2023-01-13T02:37:30.079Z,99519.19
2023-01-13T02:40:00.637Z,99528.97
2023-01-13T02:42:51.186Z,99552.91
2023-01-13T02:45:25.041Z,99531.78
2023-01-13T02:47:56.022Z,99540.16
2023-01-13T02:50:28.352Z,99535.56
2023-01-13T02:52:59.963Z,99540.97
2023-01-13T02:55:32.434Z,99552.63
2023-01-13T02:58:04.618Z,99553.91
2023-01-13T03:00:34.968Z,99556.25
2023-01-13T03:03:04.466Z,99556.44
2023-01-13T03:05:34.496Z,99570.63
2023-01-13T03:08:22.134Z,99576.75
2023-01-13T03:11:02.551Z,99591.34
2023-01-13T03:13:50.043Z,99587.00
2023-01-13T03:16:32.461Z,99592.25
2023-01-13T03:19:11.705Z,99598.47
2023-01-13T03:21:45.486Z,99615.97
2023-01-13T03:24:17.678Z,99611.53
2023-01-13T03:26:50.460Z,99626.91
2023-01-13T03:29:23.301Z,99620.75
2023-01-13T03:31:58.269Z,99628.53
2023-01-13T03:34:34.664Z,99639.47
2023-01-13T03:37:07.347Z,99625.41
2023-01-13T03:39:40.622Z,99635.88
2023-01-13T03:42:12.795Z,99637.31
2023-01-13T03:44:45.310Z,99661.75
2023-01-13T03:47:25.301Z,99654.97
2023-01-13T03:49:57.405Z,99694.16
2023-01-13T03:52:30.534Z,99674.34
2023-01-13T03:55:03.420Z,99674.34
2023-01-13T03:57:36.100Z,99687.44
2023-01-13T04:00:09.719Z,99688.25
2023-01-13T04:02:48.357Z,99700.66
2023-01-13T04:05:18.305Z,99692.41
2023-01-13T04:07:57.859Z,99682.91
2023-01-13T04:10:31.534Z,99685.53
2023-01-13T04:13:03.263Z,99699.19
2023-01-13T04:15:35.478Z,99704.59
2023-01-13T04:18:11.990Z,99712.75
2023-01-13T04:20:41.070Z,99707.22
2023-01-13T04:23:09.557Z,99713.28
2023-01-13T04:25:38.149Z,99712.00
2023-01-13T04:28:09.787Z,99720.88
2023-01-13T04:30:38.304Z,99723.31
2023-01-13T04:33:08.395Z,99743.00
2023-01-13T04:35:37.428Z,99732.03
2023-01-13T04:38:07.130Z,99741.72
2023-01-13T04:40:35.405Z,99735.19
2023-01-13T04:43:03.918Z,99749.28
2023-01-13T04:45:32.283Z,99748.47
2023-01-13T04:48:05.303Z,99768.63
2023-01-13T04:50:36.184Z,99741.03
2023-01-13T04:53:04.783Z,99769.25
2023-01-13T04:55:33.273Z,99780.94
2023-01-13T04:58:05.871Z,99779.00
2023-01-13T05:00:34.337Z,99784.88
2023-01-13T05:03:02.835Z,99774.88
2023-01-13T05:05:32.244Z,99789.50
2023-01-13T05:08:01.980Z,99790.31
2023-01-13T05:10:30.156Z,99815.72
2023-01-13T05:13:15.717Z,99810.28
2023-01-13T05:16:04.118Z,99801.59
2023-01-13T05:18:33.452Z,99792.28
2023-01-13T05:21:01.674Z,99807.38
2023-01-13T05:23:48.681Z,99814.63
2023-01-13T05:26:16.776Z,99808.72
2023-01-13T05:28:45.015Z,99832.97
2023-01-13T05:31:14.992Z,99842.97
2023-01-13T05:33:43.275Z,99815.56
2023-01-13T05:36:11.461Z,99838.22
2023-01-13T05:38:42.248Z,99815.44
2023-01-13T05:41:28.512Z,99858.00
2023-01-13T05:43:56.762Z,99851.25
2023-01-13T05:46:25.121Z,99867.97
2023-01-13T05:48:53.289Z,99876.34
2023-01-13T05:51:26.334Z,99875.03
2023-01-13T05:53:55.841Z,99882.25
2023-01-13T05:56:24.072Z,99889.28
2023-01-13T05:58:52.195Z,99907.63
2023-01-13T06:01:20.455Z,99890.28
2023-01-13T06:03:48.688Z,99927.16
2023-01-13T06:06:17.104Z,99912.06
2023-01-13T06:08:45.280Z,99937.47
2023-01-13T06:11:14.876Z,99932.56
2023-01-13T06:13:43.419Z,99893.72
2023-01-13T06:16:12.003Z,99934.84
2023-01-13T06:18:40.145Z,99921.91
2023-01-13T06:21:08.276Z,99944.69
2023-01-13T06:23:38.853Z,99935.19
2023-01-13T06:26:11.277Z,99954.34
2023-01-13T06:28:41.030Z,99946.00
2023-01-13T06:31:11.106Z,99948.44
2023-01-13T06:33:42.399Z,99965.00
2023-01-13T06:36:15.029Z,99966.16
2023-01-13T06:38:46.390Z,99966.78
2023-01-13T06:41:14.931Z,99966.78
2023-01-13T06:43:43.505Z,99976.47
2023-01-13T06:46:11.718Z,99972.22
2023-01-13T06:48:39.895Z,99966.34
2023-01-13T06:51:08.022Z,99985.19
2023-01-13T06:53:36.089Z,100000.56
2023-01-13T06:56:06.622Z,100005.47
2023-01-13T06:58:34.785Z,99998.75
2023-01-13T07:01:04.517Z,100028.41
2023-01-13T07:03:32.858Z,100023.00
2023-01-13T07:06:02.359Z,100024.94
2023-01-13T07:08:30.654Z,100024.47
2023-01-13T07:10:58.940Z,100030.38
2023-01-13T07:13:44.828Z,100034.31
2023-01-13T07:16:14.472Z,100047.09
2023-01-13T07:18:42.637Z,100040.38
2023-01-13T07:21:13.346Z,100046.59
2023-01-13T07:23:42.692Z,100054.47
2023-01-13T07:26:12.291Z,100062.97
2023-01-13T07:28:40.833Z,100067.41
2023-01-13T07:31:17.251Z,100068.22
2023-01-13T07:33:45.581Z,100094.09
2023-01-13T07:36:14.587Z,100069.84
2023-01-13T07:38:44.721Z,100093.44
2023-01-13T07:41:31.052Z,100098.19
2023-01-13T07:44:00.354Z,100099.53
2023-01-13T07:46:30.013Z,100111.63
2023-01-13T07:48:58.248Z,100110.66
2023-01-13T07:51:26.523Z,100122.78
2023-01-13T07:53:55.024Z,100125.06
2023-01-13T07:56:23.118Z,100134.41
2023-01-13T07:58:53.021Z,100138.00
2023-01-13T08:01:22.636Z,100125.56
2023-01-13T08:03:52.311Z,100144.41
2023-01-13T08:06:20.509Z,100147.19
2023-01-13T08:08:49.025Z,100174.22
2023-01-13T08:11:17.243Z,100158.50
2023-01-13T08:13:45.668Z,100173.53
2023-01-13T08:16:16.105Z,100170.63
2023-01-13T08:18:44.846Z,100175.03
2023-01-13T08:21:15.525Z,100188.16
2023-01-13T08:23:45.926Z,100174.53
2023-01-13T08:26:16.609Z,100179.59
2023-01-13T08:28:45.852Z,100186.31
2023-01-13T08:31:16.499Z,100213.00
2023-01-13T08:33:45.119Z,100198.44
2023-01-13T08:36:14.765Z,100237.06
2023-01-13T08:38:43.438Z,100234.31
2023-01-13T08:41:12.908Z,100233.31
2023-01-13T08:43:41.063Z,100230.22
2023-01-13T08:46:09.424Z,100226.78
2023-01-13T08:48:37.825Z,100240.03
2023-01-13T08:51:07.857Z,100242.50
2023-01-13T08:53:37.551Z,100256.56
2023-01-13T08:56:11.034Z,100256.25
2023-01-13T08:58:39.429Z,100276.25
2023-01-13T09:01:08.686Z,100271.69
2023-01-13T09:03:36.967Z,100279.88
2023-01-13T09:06:05.740Z,100281.00
2023-01-13T09:08:34.019Z,100289.34
2023-01-13T09:11:24.324Z,100289.03
2023-01-13T09:13:51.473Z,100300.34
2023-01-13T09:16:19.667Z,100288.88
2023-01-13T09:18:47.994Z,100295.28
2023-01-13T09:21:16.628Z,100302.31
2023-01-13T09:23:44.845Z,100309.72
2023-01-13T09:26:17.735Z,100312.47
2023-01-13T09:28:46.027Z,100310.66
2023-01-13T09:31:14.386Z,100315.41
2023-01-13T09:33:59.154Z,100308.03
2023-01-13T09:36:27.241Z,100328.19
2023-01-13T09:38:55.446Z,100342.13
2023-01-13T09:41:45.004Z,100351.31
2023-01-13T09:44:19.359Z,100355.28
2023-01-13T09:46:52.594Z,100349.72
2023-01-13T09:49:24.586Z,100361.84
2023-01-13T09:52:00.169Z,100350.06
2023-01-13T09:54:35.074Z,100365.47
2023-01-13T09:57:11.371Z,100357.97
2023-01-13T09:59:39.948Z,100372.41
2023-01-13T10:02:31.788Z,100378.84
2023-01-13T10:05:11.296Z,100375.75
2023-01-13T10:07:46.281Z,100386.88
2023-01-13T10:10:20.211Z,100370.16
2023-01-13T10:13:09.477Z,100386.41
2023-01-13T10:15:37.948Z,100392.16
2023-01-13T10:18:17.529Z,100395.44
2023-01-13T10:20:58.048Z,100430.22
2023-01-13T10:23:48.474Z,100416.13
2023-01-13T10:26:31.906Z,100425.97
2023-01-13T10:29:01.735Z,100428.28
2023-01-13T10:31:29.908Z,100442.22
2023-01-13T10:34:03.981Z,100437.16
2023-01-13T10:36:32.111Z,100450.28
2023-01-13T10:39:09.804Z,100460.97
2023-01-13T10:41:38.069Z,100468.22
2023-01-13T10:44:17.318Z,100473.63
2023-01-13T10:46:53.757Z,100484.13
2023-01-13T10:49:31.201Z,100495.13
2023-01-13T10:52:00.030Z,100496.56
2023-01-13T10:54:28.580Z,100499.19
2023-01-13T10:57:20.029Z,100507.25
2023-01-13T10:59:52.927Z,100514.09
2023-01-13T11:02:27.900Z,100524.44
2023-01-13T11:05:04.025Z,100525.59
2023-01-13T11:07:36.647Z,100545.47
2023-01-13T11:10:17.650Z,100554.53
2023-01-13T11:12:52.702Z,100538.09
2023-01-13T11:15:26.397Z,100550.44
2023-01-13T11:18:01.522Z,100557.03
2023-01-13T11:20:37.018Z,100555.88
2023-01-13T11:23:14.923Z,100565.09
2023-01-13T11:25:48.139Z,100563.78
2023-01-13T11:28:35.590Z,100557.22
2023-01-13T11:31:15.660Z,100561.50
2023-01-13T11:33:49.738Z,100582.19
2023-01-13T11:36:22.947Z,100583.38
2023-01-13T11:38:53.890Z,100589.78
2023-01-13T11:41:43.415Z,100597.50
2023-01-13T11:44:24.647Z,100581.41
2023-01-13T11:46:55.648Z,100593.09
2023-01-13T11:49:27.621Z,100587.50
2023-01-13T11:52:03.056Z,100603.28
2023-01-13T11:55:00.640Z,100617.09
2023-01-13T11:58:01.542Z,100605.44
2023-01-13T12:00:38.044Z,100622.50
2023-01-13T12:03:25.713Z,100630.25
2023-01-13T12:06:09.190Z,100616.44
2023-01-13T12:08:54.375Z,100626.97
2023-01-13T12:11:29.724Z,100622.72
2023-01-13T12:14:19.914Z,100644.25
2023-01-13T12:16:50.784Z,100631.72
2023-01-13T12:19:28.213Z,100650.97
2023-01-13T12:22:12.445Z,100644.88
2023-01-13T12:24:48.833Z,100658.53
2023-01-13T12:27:23.575Z,100654.75
2023-01-13T12:29:58.410Z,100651.81
2023-01-13T12:32:32.451Z,100660.69
2023-01-13T12:35:24.336Z,100659.03
2023-01-13T12:37:58.788Z,100663.50
2023-01-13T12:40:42.863Z,100665.13
2023-01-13T12:43:35.315Z,100688.47
2023-01-13T12:46:45.717Z,100689.78
2023-01-13T12:49:26.858Z,100683.53
2023-01-13T12:52:23.467Z,100705.22
2023-01-13T12:55:15.056Z,100690.94
2023-01-13T12:57:58.404Z,100700.97
2023-01-13T13:00:33.534Z,100702.44
2023-01-13T13:03:29.035Z,100703.63
2023-01-13T13:06:02.400Z,100711.50
2023-01-13T13:08:45.867Z,100699.16
2023-01-13T13:11:53.701Z,100703.28
2023-01-13T13:14:55.154Z,100690.13
2023-01-13T13:17:43.379Z,100725.31
2023-01-13T13:20:44.891Z,100699.16
2023-01-13T13:23:29.260Z,100709.84
2023-01-13T13:26:04.794Z,100706.91
2023-01-13T13:28:38.329Z,100713.47
2023-01-13T13:31:25.771Z,100706.41
2023-01-13T13:34:14.525Z,100719.72
2023-01-13T13:37:05.521Z,100713.97
2023-01-13T13:39:51.727Z,100730.41
2023-01-13T13:42:52.024Z,100734.19
2023-01-13T13:45:40.360Z,100732.72
2023-01-13T13:48:23.137Z,100750.81
2023-01-13T13:50:56.700Z,100745.38
2023-01-13T13:53:28.469Z,100734.88
2023-01-13T13:55:59.696Z,100754.94
2023-01-13T13:58:31.412Z,100726.94
2023-01-13T14:01:00.987Z,100716.09
2023-01-13T14:03:32.334Z,100713.47
2023-01-13T14:06:02.850Z,100706.22
2023-01-13T14:08:34.045Z,100714.13
2023-01-13T14:11:02.958Z,100709.06
2023-01-13T14:13:33.199Z,100729.28
2023-01-13T14:16:03.508Z,100716.28
2023-01-13T14:18:46.499Z,100729.78
2023-01-13T14:21:21.723Z,100712.16
2023-01-13T14:23:53.578Z,100722.16
2023-01-13T14:26:26.834Z,100717.25
2023-01-13T14:28:58.951Z,100715.75
2023-01-13T14:31:27.474Z,100715.25
2023-01-13T14:33:58.613Z,100709.66
2023-01-13T14:36:37.254Z,100712.13
2023-01-13T14:39:25.129Z,100709.97
2023-01-13T14:41:53.741Z,100709.81
2023-01-13T14:44:27.525Z,100708.81
2023-01-13T14:46:57.388Z,100702.88
2023-01-13T14:49:30.196Z,100695.31
2023-01-13T14:52:08.293Z,100699.09
2023-01-13T14:54:49.119Z,100711.88
2023-01-13T14:57:27.690Z,100725.19
2023-01-13T15:00:25.074Z,100725.00
2023-01-13T15:03:08.649Z,100724.50
2023-01-13T15:05:47.782Z,100721.88
2023-01-13T15:08:40.392Z,100719.03
2023-01-13T15:11:18.694Z,100706.38
2023-01-13T15:13:52.985Z,100704.06
2023-01-13T15:16:26.601Z,100697.84
2023-01-13T15:18:56.278Z,100690.78
2023-01-13T15:21:25.206Z,100693.53
2023-01-13T15:23:53.501Z,100697.97
2023-01-13T15:26:24.666Z,100698.16
2023-01-13T15:28:54.149Z,100702.75
2023-01-13T15:31:24.793Z,100692.88
2023-01-13T15:33:53.021Z,100700.25
2023-01-13T15:36:24.618Z,100704.56
2023-01-13T15:38:52.525Z,100724.06
2023-01-13T15:41:42.117Z,100710.28
2023-01-13T15:44:29.559Z,100715.84
2023-01-13T15:47:02.714Z,100727.34
2023-01-13T15:49:36.274Z,100725.66
2023-01-13T15:52:05.723Z,100724.53
2023-01-13T15:54:33.954Z,100724.53
2023-01-13T15:57:02.373Z,100729.81
2023-01-13T15:59:30.547Z,100737.53
2023-01-13T16:02:00.081Z,100739.50
2023-01-13T16:04:28.157Z,100735.88
2023-01-13T16:06:56.412Z,100725.66
2023-01-13T16:09:24.637Z,100723.50
2023-01-13T16:11:52.796Z,100721.06
2023-01-13T16:14:20.958Z,100727.00
2023-01-13T16:16:49.117Z,100732.25
2023-01-13T16:19:18.614Z,100743.72
2023-01-13T16:21:46.876Z,100738.09
2023-01-13T16:24:14.993Z,100730.22
2023-01-13T16:26:43.099Z,100735.13
2023-01-13T16:29:12.705Z,100736.75
2023-01-13T16:31:41.164Z,100737.59
2023-01-13T16:34:09.410Z,100731.50
2023-01-13T16:36:39.107Z,100727.94
2023-01-13T16:39:20.958Z,100722.66
2023-01-13T16:41:49.329Z,100721.16
2023-01-13T16:44:17.608Z,100719.53
2023-01-13T16:46:46.165Z,100721.00
2023-01-13T16:49:16.312Z,100723.63
2023-01-13T16:51:46.071Z,100711.47
2023-01-13T16:54:14.541Z,100708.03
2023-01-13T16:56:42.804Z,100707.38
2023-01-13T16:59:13.734Z,100702.13
2023-01-13T17:01:44.908Z,100703.06
2023-01-13T17:04:16.916Z,100709.19
2023-01-13T17:06:54.539Z,100723.28
2023-01-13T17:09:25.453Z,100713.59
2023-01-13T17:11:54.264Z,100708.50
2023-01-13T17:14:23.645Z,100704.06
2023-01-13T17:16:53.306Z,100698.81
2023-01-13T17:19:23.671Z,100685.03
2023-01-13T17:21:53.465Z,100684.19
2023-01-13T17:24:22.142Z,100691.91
2023-01-13T17:26:51.737Z,100686.00
2023-01-13T17:29:22.764Z,100679.91
2023-01-13T17:31:51.552Z,100687.78
2023-01-13T17:34:21.136Z,100687.78
2023-01-13T17:36:49.418Z,100683.69
2023-01-13T17:39:21.398Z,100682.91
2023-01-13T17:41:50.599Z,100681.41
2023-01-13T17:44:20.664Z,100678.63
2023-01-13T17:46:49.444Z,100688.31
2023-01-13T17:49:19.615Z,100681.25
2023-01-13T17:51:48.499Z,100664.00
2023-01-13T17:54:18.733Z,100659.28
2023-01-13T17:56:47.079Z,100657.31
2023-01-13T17:59:16.452Z,100653.69
2023-01-13T18:01:44.934Z,100641.53
2023-01-13T18:04:16.927Z,100638.09
2023-01-13T18:06:45.649Z,100650.25
2023-01-13T18:09:14.049Z,100660.56
2023-01-13T18:11:44.661Z,100655.50
2023-01-13T18:14:13.907Z,100645.16
2023-01-13T18:16:42.136Z,100623.31
2023-01-13T18:19:29.358Z,100624.97
2023-01-13T18:22:15.012Z,100612.00
2023-01-13T18:25:00.995Z,100617.56
2023-01-13T18:27:33.517Z,100606.22
2023-01-13T18:30:03.414Z,100592.56
2023-01-13T18:32:33.614Z,100597.00
2023-01-13T18:35:06.800Z,100575.34
2023-01-13T18:37:38.707Z,100575.34
2023-01-13T18:40:09.474Z,100570.91
2023-01-13T18:42:59.106Z,100567.63
2023-01-13T18:45:29.618Z,100562.34
2023-01-13T18:47:59.523Z,100555.97
2023-01-13T18:50:28.387Z,100557.78
2023-01-13T18:52:57.245Z,100546.28
2023-01-13T18:55:25.803Z,100528.38
2023-01-13T18:57:55.628Z,100520.19
2023-01-13T19:00:25.143Z,100527.22
2023-01-13T19:05:35.562Z,100522.16
2023-01-13T19:08:03.975Z,100529.72
2023-01-13T19:10:32.954Z,100509.53
2023-01-13T19:13:02.810Z,100497.38
2023-01-13T19:15:31.675Z,100495.41
2023-01-13T19:18:00.299Z,100484.09
2023-01-13T19:20:28.634Z,100475.03
2023-01-13T19:22:56.839Z,100471.78
2023-01-13T19:25:24.953Z,100456.66
2023-01-13T19:27:53.080Z,100459.63
2023-01-13T19:30:22.832Z,100455.69
2023-01-13T19:32:51.311Z,100437.47
2023-01-13T19:35:20.215Z,100422.19
2023-01-13T19:37:48.489Z,100413.34
2023-01-13T19:40:17.237Z,100410.03
2023-01-13T19:43:14.596Z,100398.72
2023-01-13T19:45:44.996Z,100386.41
2023-01-13T19:48:16.179Z,100363.44
2023-01-13T19:50:44.326Z,100363.09
2023-01-13T19:53:17.209Z,100362.75
2023-01-13T19:55:48.548Z,100347.69
2023-01-13T19:58:18.917Z,100332.25
2023-01-13T20:00:48.734Z,100320.59
2023-01-13T20:03:23.748Z,100300.59
2023-01-13T20:05:52.117Z,100299.78
2023-01-13T20:08:21.016Z,100288.09
2023-01-13T20:10:50.075Z,100287.09
2023-01-13T20:13:18.152Z,100277.91
2023-01-13T20:15:46.454Z,100268.06
2023-01-13T20:18:16.096Z,100259.22
2023-01-13T20:20:44.613Z,100252.31
2023-01-13T20:23:12.834Z,100248.72
2023-01-13T20:25:43.376Z,100242.00
2023-01-13T20:28:11.468Z,100247.25
2023-01-13T20:30:41.792Z,100227.22
2023-01-13T20:33:09.982Z,100219.22
2023-01-13T20:35:39.588Z,100217.06
2023-01-13T20:38:07.866Z,100204.59
2023-01-13T20:40:36.040Z,100192.44
2023-01-13T20:43:05.543Z,100196.88
2023-01-13T20:45:34.111Z,100183.91
2023-01-13T20:48:02.227Z,100172.09
2023-01-13T20:50:30.383Z,100167.66
2023-01-13T20:52:59.953Z,100166.84
2023-01-13T20:55:28.100Z,100152.72
2023-01-13T20:57:56.258Z,100145.69
2023-01-13T21:00:24.535Z,100128.28
2023-01-13T21:02:52.630Z,100131.06
2023-01-13T21:05:20.929Z,100115.97
2023-01-13T21:07:49.133Z,100096.63
2023-01-13T21:10:18.931Z,100092.00
2023-01-13T21:13:04.842Z,100097.25
2023-01-13T21:15:32.951Z,100094.78
2023-01-13T21:18:18.858Z,100074.06
2023-01-13T21:20:47.063Z,100065.69
2023-01-13T21:23:15.703Z,100057.63
2023-01-13T21:25:45.164Z,100051.19
2023-01-13T21:28:14.149Z,100040.84
2023-01-13T21:30:42.882Z,100020.94
2023-01-13T21:33:14.545Z,100021.03
2023-01-13T21:35:42.683Z,100015.75
2023-01-13T21:38:12.408Z,99992.22
2023-01-13T21:40:40.700Z,99980.00
2023-01-13T21:43:30.337Z,99977.50
2023-01-13T21:46:16.053Z,99955.09
2023-01-13T21:48:44.412Z,99946.69
2023-01-13T21:51:12.574Z,99916.41
2023-01-13T21:53:40.702Z,99894.38
2023-01-13T21:56:09.274Z,99882.50
2023-01-13T21:58:40.216Z,99861.94
2023-01-13T22:01:09.937Z,99849.41
2023-01-13T22:03:54.671Z,99839.75
2023-01-13T22:06:22.891Z,99830.47
2023-01-13T22:08:51.146Z,99825.84
2023-01-13T22:11:19.422Z,99813.53
2023-01-13T22:14:08.984Z,99797.56
2023-01-13T22:16:39.904Z,99773.53
2023-01-13T22:19:08.994Z,99782.03
2023-01-13T22:21:37.588Z,99766.72
2023-01-13T22:24:06.498Z,99757.91
2023-01-13T22:26:35.670Z,99757.50
2023-01-13T22:29:05.314Z,99764.03
2023-01-13T22:31:33.591Z,99765.03
2023-01-13T22:34:01.748Z,99758.16
2023-01-13T22:36:29.922Z,99756.69
2023-01-13T22:39:00.327Z,99747.38
2023-01-13T22:41:28.669Z,99740.84
2023-01-13T22:43:56.945Z,99731.91
2023-01-13T22:46:26.683Z,99722.56
2023-01-13T22:48:56.050Z,99706.53
2023-01-13T22:51:24.431Z,99702.28
2023-01-13T22:53:52.674Z,99695.56
2023-01-13T22:56:23.416Z,99688.66
2023-01-13T22:58:54.755Z,99673.09
2023-01-13T23:01:23.845Z,99663.59
2023-01-13T23:03:53.891Z,99648.41
2023-01-13T23:06:23.724Z,99630.63
2023-01-13T23:08:52.529Z,99615.84
2023-01-13T23:11:23.583Z,99603.72
2023-01-13T23:13:51.700Z,99587.94
2023-01-13T23:16:22.136Z,99577.53
2023-01-13T23:18:50.648Z,99563.16
2023-01-13T23:21:23.015Z,99547.78
2023-01-13T23:23:51.751Z,99534.78
2023-01-13T23:26:20.968Z,99516.41
2023-01-13T23:28:49.472Z,99506.09
2023-01-13T23:31:20.008Z,99486.88
2023-01-13T23:33:48.752Z,99472.94
2023-01-13T23:36:20.775Z,99459.13
2023-01-13T23:38:49.001Z,99441.59
2023-01-13T23:41:18.597Z,99426.63
2023-01-13T23:43:51.956Z,99408.41
2023-01-13T23:46:21.275Z,99389.81
2023-01-13T23:48:49.591Z,99361.53
2023-01-13T23:51:22.303Z,99356.47
2023-01-13T23:53:52.002Z,99340.50
2023-01-13T23:56:22.779Z,99329.97
2023-01-13T23:58:52.256Z,99323.53
